sensor_id;sensor_type;location;lat;lon;timestamp;temperature;humidity
26021;DHT22;13798;48.858;9.092;2022-08-01T05:26:39;512.00;2380.80
26021;DHT22;13798;48.858;9.092;2022-08-01T05:29:05;512.50;2380.80
26021;DHT22;13798;48.858;9.092;2022-08-01T05:31:30;537.70;2406.40
26021;DHT22;13798;48.858;9.092;2022-08-01T05:34:00;537.60;2406.40
26021;DHT22;13798;48.858;9.092;2022-08-01T05:36:25;512.80;2380.80
26021;DHT22;13798;48.858;9.092;2022-08-01T05:38:51;512.90;2380.80
26021;DHT22;13798;48.858;9.092;2022-08-01T05:41:16;512.90;2380.80
26021;DHT22;13798;48.858;9.092;2022-08-01T05:43:42;537.80;2406.40
26021;DHT22;13798;48.858;9.092;2022-08-01T05:46:07;537.80;2406.40
26021;DHT22;13798;48.858;9.092;2022-08-01T05:48:33;537.80;2406.40
26021;DHT22;13798;48.858;9.092;2022-08-01T05:50:58;537.70;2406.40
26021;DHT22;13798;48.858;9.092;2022-08-01T05:53:24;538.00;2406.40
26021;DHT22;13798;48.858;9.092;2022-08-01T05:55:49;538.20;2406.40
26021;DHT22;13798;48.858;9.092;2022-08-01T05:58:15;538.00;2406.40
26021;DHT22;13798;48.858;9.092;2022-08-01T06:00:40;538.00;2406.40
26021;DHT22;13798;48.858;9.092;2022-08-01T06:03:06;538.40;2406.40
26021;DHT22;13798;48.858;9.092;2022-08-01T06:05:31;563.30;2432.00
26021;DHT22;13798;48.858;9.092;2022-08-01T06:07:57;538.30;2406.40
26021;DHT22;13798;48.858;9.092;2022-08-01T06:10:23;563.20;2432.00
26021;DHT22;13798;48.858;9.092;2022-08-01T06:12:49;563.40;2432.00
26021;DHT22;13798;48.858;9.092;2022-08-01T06:15:14;563.50;2432.00
26021;DHT22;13798;48.858;9.092;2022-08-01T06:17:40;538.40;2406.40
26021;DHT22;13798;48.858;9.092;2022-08-01T06:20:07;538.50;2406.40
26021;DHT22;13798;48.858;9.092;2022-08-01T06:22:33;563.50;2432.00
26021;DHT22;13798;48.858;9.092;2022-08-01T06:24:58;563.60;2432.00
26021;DHT22;13798;48.858;9.092;2022-08-01T06:27:24;563.70;2432.00
26021;DHT22;13798;48.858;9.092;2022-08-01T06:29:52;563.50;2432.00
26021;DHT22;13798;48.858;9.092;2022-08-01T06:32:22;563.60;2432.00
26021;DHT22;13798;48.858;9.092;2022-08-01T06:34:48;563.60;2432.00
26021;DHT22;13798;48.858;9.092;2022-08-01T06:37:13;563.50;2432.00
26021;DHT22;13798;48.858;9.092;2022-08-01T06:39:39;563.90;2432.00
26021;DHT22;13798;48.858;9.092;2022-08-01T06:42:05;563.80;2432.00
26021;DHT22;13798;48.858;9.092;2022-08-01T06:44:31;564.00;2432.00
26021;DHT22;13798;48.858;9.092;2022-08-01T06:46:56;563.80;2432.00
26021;DHT22;13798;48.858;9.092;2022-08-01T06:49:24;564.10;2432.00
26021;DHT22;13798;48.858;9.092;2022-08-01T06:51:49;563.80;2432.00
26021;DHT22;13798;48.858;9.092;2022-08-01T06:54:14;563.80;2432.00
26021;DHT22;13798;48.858;9.092;2022-08-01T06:56:41;564.10;2432.00
26021;DHT22;13798;48.858;9.092;2022-08-01T06:59:07;564.10;2432.00
26021;DHT22;13798;48.858;9.092;2022-08-01T07:01:32;564.10;2432.00
26021;DHT22;13798;48.858;9.092;2022-08-01T07:03:58;588.90;2432.00
26021;DHT22;13798;48.858;9.092;2022-08-01T07:06:25;588.90;2432.00
26021;DHT22;13798;48.858;9.092;2022-08-01T07:08:52;589.00;2432.00
26021;DHT22;13798;48.858;9.092;2022-08-01T07:11:18;589.10;2432.00
26021;DHT22;13798;48.858;9.092;2022-08-01T07:13:44;589.00;2432.00
26021;DHT22;13798;48.858;9.092;2022-08-01T07:16:16;589.00;2432.00
26021;DHT22;13798;48.858;9.092;2022-08-01T07:18:42;589.00;2432.00
26021;DHT22;13798;48.858;9.092;2022-08-01T07:21:08;589.20;2432.00
26021;DHT22;13798;48.858;9.092;2022-08-01T07:23:34;589.40;2432.00
26021;DHT22;13798;48.858;9.092;2022-08-01T07:26:00;589.20;2432.00
26021;DHT22;13798;48.858;9.092;2022-08-01T07:28:27;589.30;2432.00
26021;DHT22;13798;48.858;9.092;2022-08-01T07:30:53;589.00;2432.00
26021;DHT22;13798;48.858;9.092;2022-08-01T07:33:19;589.20;2432.00
26021;DHT22;13798;48.858;9.092;2022-08-01T07:35:44;589.70;2432.00
26021;DHT22;13798;48.858;9.092;2022-08-01T07:38:10;614.50;2432.00
26021;DHT22;13798;48.858;9.092;2022-08-01T07:40:36;589.60;2432.00
26021;DHT22;13798;48.858;9.092;2022-08-01T07:43:01;589.70;2432.00
26021;DHT22;13798;48.858;9.092;2022-08-01T07:45:27;589.50;2432.00
26021;DHT22;13798;48.858;9.092;2022-08-01T07:47:53;614.60;2432.00
26021;DHT22;13798;48.858;9.092;2022-08-01T07:50:18;614.40;2432.00
26021;DHT22;13798;48.858;9.092;2022-08-01T07:52:44;614.50;2432.00
26021;DHT22;13798;48.858;9.092;2022-08-01T07:55:11;614.40;2432.00
26021;DHT22;13798;48.858;9.092;2022-08-01T07:57:36;614.60;2432.00
26021;DHT22;13798;48.858;9.092;2022-08-01T08:00:05;614.40;2432.00
26021;DHT22;13798;48.858;9.092;2022-08-01T08:02:31;614.50;2432.00
26021;DHT22;13798;48.858;9.092;2022-08-01T08:04:57;614.60;2432.00
26021;DHT22;13798;48.858;9.092;2022-08-01T08:07:25;614.90;2432.00
26021;DHT22;13798;48.858;9.092;2022-08-01T08:09:50;614.80;2432.00
26021;DHT22;13798;48.858;9.092;2022-08-01T08:12:16;615.10;2432.00
26021;DHT22;13798;48.858;9.092;2022-08-01T08:14:41;615.20;2432.00
26021;DHT22;13798;48.858;9.092;2022-08-01T08:17:07;615.10;2432.00
26021;DHT22;13798;48.858;9.092;2022-08-01T08:19:33;615.20;2432.00
26021;DHT22;13798;48.858;9.092;2022-08-01T08:22:01;615.30;2432.00
26021;DHT22;13798;48.858;9.092;2022-08-01T08:24:27;640.10;2432.00
26021;DHT22;13798;48.858;9.092;2022-08-01T08:26:55;615.30;2432.00
26021;DHT22;13798;48.858;9.092;2022-08-01T08:29:21;640.30;2432.00
26021;DHT22;13798;48.858;9.092;2022-08-01T08:31:48;640.00;2432.00
26021;DHT22;13798;48.858;9.092;2022-08-01T08:34:14;640.10;2432.00
26021;DHT22;13798;48.858;9.092;2022-08-01T08:36:39;615.30;2432.00
26021;DHT22;13798;48.858;9.092;2022-08-01T08:39:05;615.20;2432.00
26021;DHT22;13798;48.858;9.092;2022-08-01T08:41:35;640.40;2432.00
26021;DHT22;13798;48.858;9.092;2022-08-01T08:44:08;640.80;2432.00
26021;DHT22;13798;48.858;9.092;2022-08-01T08:46:46;640.70;2432.00
26021;DHT22;13798;48.858;9.092;2022-08-01T08:49:19;640.20;2432.00
26021;DHT22;13798;48.858;9.092;2022-08-01T08:51:48;615.30;2432.00
26021;DHT22;13798;48.858;9.092;2022-08-01T08:54:15;615.20;2432.00
26021;DHT22;13798;48.858;9.092;2022-08-01T08:56:42;640.00;2432.00
26021;DHT22;13798;48.858;9.092;2022-08-01T08:59:08;615.00;2432.00
26021;DHT22;13798;48.858;9.092;2022-08-01T09:01:36;640.20;2432.00
26021;DHT22;13798;48.858;9.092;2022-08-01T09:04:03;640.40;2432.00
26021;DHT22;13798;48.858;9.092;2022-08-01T09:06:29;640.90;2432.00
26021;DHT22;13798;48.858;9.092;2022-08-01T09:08:55;665.60;2432.00
26021;DHT22;13798;48.858;9.092;2022-08-01T09:11:21;665.80;2432.00
26021;DHT22;13798;48.858;9.092;2022-08-01T09:16:31;666.00;2432.00
26021;DHT22;13798;48.858;9.092;2022-08-01T09:19:11;665.90;2432.00
26021;DHT22;13798;48.858;9.092;2022-08-01T09:21:38;665.60;2432.00
26021;DHT22;13798;48.858;9.092;2022-08-01T09:24:03;665.60;2432.00
26021;DHT22;13798;48.858;9.092;2022-08-01T09:26:36;640.60;2432.00
26021;DHT22;13798;48.858;9.092;2022-08-01T09:29:04;640.60;2432.00
26021;DHT22;13798;48.858;9.092;2022-08-01T09:31:38;665.70;2432.00
26021;DHT22;13798;48.858;9.092;2022-08-01T09:34:04;665.60;2432.00
26021;DHT22;13798;48.858;9.092;2022-08-01T09:39:12;666.30;2432.00
26021;DHT22;13798;48.858;9.092;2022-08-01T09:41:39;666.40;2432.00
26021;DHT22;13798;48.858;9.092;2022-08-01T09:44:05;691.30;2432.00
26021;DHT22;13798;48.858;9.092;2022-08-01T09:46:33;666.30;2432.00
26021;DHT22;13798;48.858;9.092;2022-08-01T09:51:36;691.40;2432.00
26021;DHT22;13798;48.858;9.092;2022-08-01T09:54:04;691.40;2432.00
26021;DHT22;13798;48.858;9.092;2022-08-01T09:56:41;666.20;2432.00
26021;DHT22;13798;48.858;9.092;2022-08-01T09:59:11;666.20;2432.00
26021;DHT22;13798;48.858;9.092;2022-08-01T10:01:45;691.20;2432.00
26021;DHT22;13798;48.858;9.092;2022-08-01T10:04:12;716.80;2432.00
26021;DHT22;13798;48.858;9.092;2022-08-01T10:06:39;692.00;2432.00
26021;DHT22;13798;48.858;9.092;2022-08-01T10:09:05;716.90;2432.00
26021;DHT22;13798;48.858;9.092;2022-08-01T10:11:32;691.60;2432.00
26021;DHT22;13798;48.858;9.092;2022-08-01T10:13:59;691.60;2432.00
26021;DHT22;13798;48.858;9.092;2022-08-01T10:16:26;692.10;2432.00
26021;DHT22;13798;48.858;9.092;2022-08-01T10:18:54;716.80;2432.00
26021;DHT22;13798;48.858;9.092;2022-08-01T10:21:20;691.80;2432.00
26021;DHT22;13798;48.858;9.092;2022-08-01T10:23:48;691.30;2432.00
26021;DHT22;13798;48.858;9.092;2022-08-01T10:26:14;691.40;2432.00
26021;DHT22;13798;48.858;9.092;2022-08-01T10:28:44;691.50;2432.00
26021;DHT22;13798;48.858;9.092;2022-08-01T10:31:11;717.00;2432.00
26021;DHT22;13798;48.858;9.092;2022-08-01T10:33:36;717.20;2432.00
26021;DHT22;13798;48.858;9.092;2022-08-01T10:36:05;717.50;2432.00
26021;DHT22;13798;48.858;9.092;2022-08-01T10:38:31;717.20;2432.00
26021;DHT22;13798;48.858;9.092;2022-08-01T10:40:57;716.80;2432.00
26021;DHT22;13798;48.858;9.092;2022-08-01T10:43:24;691.90;2432.00
26021;DHT22;13798;48.858;9.092;2022-08-01T10:45:50;692.10;2432.00
26021;DHT22;13798;48.858;9.092;2022-08-01T10:50:52;717.30;2432.00
26021;DHT22;13798;48.858;9.092;2022-08-01T10:53:23;742.80;2432.00
26021;DHT22;13798;48.858;9.092;2022-08-01T10:58:31;742.90;2432.00
26021;DHT22;13798;48.858;9.092;2022-08-01T11:01:25;743.30;2432.00
26021;DHT22;13798;48.858;9.092;2022-08-01T11:03:56;743.20;2432.00
26021;DHT22;13798;48.858;9.092;2022-08-01T11:07:11;768.30;2432.00
26021;DHT22;13798;48.858;9.092;2022-08-01T11:12:03;742.90;2432.00
26021;DHT22;13798;48.858;9.092;2022-08-01T11:14:33;768.20;2432.00
26021;DHT22;13798;48.858;9.092;2022-08-01T11:17:34;768.40;2432.00
26021;DHT22;13798;48.858;9.092;2022-08-01T11:20:19;768.70;2432.00
26021;DHT22;13798;48.858;9.092;2022-08-01T11:30:54;768.70;2432.00
26021;DHT22;13798;48.858;9.092;2022-08-01T11:38:39;768.80;2432.00
26021;DHT22;13798;48.858;9.092;2022-08-01T11:44:10;819.40;2432.00
26021;DHT22;13798;48.858;9.092;2022-08-01T11:52:09;794.30;2432.00
26021;DHT22;13798;48.858;9.092;2022-08-01T11:54:39;794.10;2432.00
26021;DHT22;13798;48.858;9.092;2022-08-01T11:57:12;819.20;2432.00
26021;DHT22;13798;48.858;9.092;2022-08-01T11:59:41;819.60;2432.00
26021;DHT22;13798;48.858;9.092;2022-08-01T12:04:55;793.80;2432.00
26021;DHT22;13798;48.858;9.092;2022-08-01T12:07:23;768.70;2432.00
26021;DHT22;13798;48.858;9.092;2022-08-01T12:09:57;768.50;2432.00
26021;DHT22;13798;48.858;9.092;2022-08-01T12:12:24;768.40;2432.00
26021;DHT22;13798;48.858;9.092;2022-08-01T12:14:54;768.20;2432.00
26021;DHT22;13798;48.858;9.092;2022-08-01T12:19:55;768.10;2432.00
26021;DHT22;13798;48.858;9.092;2022-08-01T12:22:22;768.50;2432.00
26021;DHT22;13798;48.858;9.092;2022-08-01T12:24:49;768.90;2432.00
26021;DHT22;13798;48.858;9.092;2022-08-01T12:27:24;768.90;2432.00
26021;DHT22;13798;48.858;9.092;2022-08-01T12:29:50;819.30;2432.00
26021;DHT22;13798;48.858;9.092;2022-08-01T12:32:32;820.10;2432.00
26021;DHT22;13798;48.858;9.092;2022-08-01T12:35:10;794.20;2432.00
26021;DHT22;13798;48.858;9.092;2022-08-01T12:37:42;819.60;2432.00
26021;DHT22;13798;48.858;9.092;2022-08-01T12:40:30;845.20;2432.00
26021;DHT22;13798;48.858;9.092;2022-08-01T12:43:02;845.60;2432.00
26021;DHT22;13798;48.858;9.092;2022-08-01T12:45:35;871.10;2355.20
26021;DHT22;13798;48.858;9.092;2022-08-01T12:48:03;871.00;2380.80
26021;DHT22;13798;48.858;9.092;2022-08-01T12:50:32;896.30;2355.20
26021;DHT22;13798;48.858;9.092;2022-08-01T12:52:58;896.20;2304.00
26021;DHT22;13798;48.858;9.092;2022-08-01T12:55:25;896.00;2329.60
26021;DHT22;13798;48.858;9.092;2022-08-01T13:00:29;896.10;2252.80
26021;DHT22;13798;48.858;9.092;2022-08-01T13:03:04;845.20;2406.40
26021;DHT22;13798;48.858;9.092;2022-08-01T13:05:51;845.10;2406.40
26021;DHT22;13798;48.858;9.092;2022-08-01T13:08:36;845.40;2380.80
26021;DHT22;13798;48.858;9.092;2022-08-01T13:11:11;845.20;2355.20
26021;DHT22;13798;48.858;9.092;2022-08-01T13:13:51;819.80;2380.80
26021;DHT22;13798;48.858;9.092;2022-08-01T13:16:22;845.20;2380.80
26021;DHT22;13798;48.858;9.092;2022-08-01T13:18:50;845.30;2329.60
26021;DHT22;13798;48.858;9.092;2022-08-01T13:21:21;820.00;2355.20
26021;DHT22;13798;48.858;9.092;2022-08-01T13:24:10;819.30;2406.40
26021;DHT22;13798;48.858;9.092;2022-08-01T13:26:49;819.30;2406.40
26021;DHT22;13798;48.858;9.092;2022-08-01T13:29:28;845.40;2329.60
26021;DHT22;13798;48.858;9.092;2022-08-01T13:31:58;794.50;2406.40
26021;DHT22;13798;48.858;9.092;2022-08-01T13:34:31;845.40;2380.80
26021;DHT22;13798;48.858;9.092;2022-08-01T13:36:57;896.10;2252.80
26021;DHT22;13798;48.858;9.092;2022-08-01T13:39:23;870.90;2227.20
26021;DHT22;13798;48.858;9.092;2022-08-01T13:42:14;871.30;2227.20
26021;DHT22;13798;48.858;9.092;2022-08-01T13:44:41;896.50;2176.00
26021;DHT22;13798;48.858;9.092;2022-08-01T13:47:08;921.70;2176.00
26021;DHT22;13798;48.858;9.092;2022-08-01T13:49:34;870.60;2201.60
26021;DHT22;13798;48.858;9.092;2022-08-01T13:52:00;896.40;2176.00
26021;DHT22;13798;48.858;9.092;2022-08-01T13:54:26;921.70;2124.80
26021;DHT22;13798;48.858;9.092;2022-08-01T13:56:52;921.80;2124.80
26021;DHT22;13798;48.858;9.092;2022-08-01T13:59:18;921.90;2099.20
26021;DHT22;13798;48.858;9.092;2022-08-01T14:01:44;896.70;2099.20
26021;DHT22;13798;48.858;9.092;2022-08-01T14:04:10;896.20;2099.20
26021;DHT22;13798;48.858;9.092;2022-08-01T14:06:35;896.30;2124.80
26021;DHT22;13798;48.858;9.092;2022-08-01T14:09:02;896.80;2124.80
26021;DHT22;13798;48.858;9.092;2022-08-01T14:11:28;896.40;2073.60
26021;DHT22;13798;48.858;9.092;2022-08-01T14:13:53;871.30;2099.20
26021;DHT22;13798;48.858;9.092;2022-08-01T14:16:19;819.90;2227.20
26021;DHT22;13798;48.858;9.092;2022-08-01T14:18:44;819.70;2252.80
26021;DHT22;13798;48.858;9.092;2022-08-01T14:21:10;819.70;2278.40
26021;DHT22;13798;48.858;9.092;2022-08-01T14:23:36;845.40;2252.80
26021;DHT22;13798;48.858;9.092;2022-08-01T14:26:02;845.40;2227.20
26021;DHT22;13798;48.858;9.092;2022-08-01T14:28:28;845.00;2227.20
26021;DHT22;13798;48.858;9.092;2022-08-01T14:30:58;794.30;2304.00
26021;DHT22;13798;48.858;9.092;2022-08-01T14:33:25;819.50;2304.00
26021;DHT22;13798;48.858;9.092;2022-08-01T14:35:51;845.30;2252.80
26021;DHT22;13798;48.858;9.092;2022-08-01T14:38:17;845.20;2227.20
26021;DHT22;13798;48.858;9.092;2022-08-01T14:40:42;870.40;2176.00
26021;DHT22;13798;48.858;9.092;2022-08-01T14:43:08;896.60;2150.40
26021;DHT22;13798;48.858;9.092;2022-08-01T14:45:34;921.90;2099.20
26021;DHT22;13798;48.858;9.092;2022-08-01T14:48:00;896.90;2048.00
26021;DHT22;13798;48.858;9.092;2022-08-01T14:50:26;870.70;2073.60
26021;DHT22;13798;48.858;9.092;2022-08-01T14:52:56;845.50;2176.00
26021;DHT22;13798;48.858;9.092;2022-08-01T14:55:22;870.50;2124.80
26021;DHT22;13798;48.858;9.092;2022-08-01T14:57:50;870.40;2124.80
26021;DHT22;13798;48.858;9.092;2022-08-01T15:00:16;845.40;2201.60
26021;DHT22;13798;48.858;9.092;2022-08-01T15:02:42;845.00;2176.00
26021;DHT22;13798;48.858;9.092;2022-08-01T15:05:08;820.10;2201.60
26021;DHT22;13798;48.858;9.092;2022-08-01T15:07:35;845.20;2201.60
26021;DHT22;13798;48.858;9.092;2022-08-01T15:10:03;845.20;2176.00
26021;DHT22;13798;48.858;9.092;2022-08-01T15:12:33;845.40;2150.40
26021;DHT22;13798;48.858;9.092;2022-08-01T15:14:59;870.50;2150.40
26021;DHT22;13798;48.858;9.092;2022-08-01T15:17:29;845.70;2150.40
26021;DHT22;13798;48.858;9.092;2022-08-01T15:20:02;845.30;2124.80
26021;DHT22;13798;48.858;9.092;2022-08-01T15:22:29;845.40;2124.80
26021;DHT22;13798;48.858;9.092;2022-08-01T15:24:57;819.90;2150.40
26021;DHT22;13798;48.858;9.092;2022-08-01T15:27:23;820.10;2150.40
26021;DHT22;13798;48.858;9.092;2022-08-01T15:29:52;819.50;2201.60
26021;DHT22;13798;48.858;9.092;2022-08-01T15:32:18;794.50;2227.20
26021;DHT22;13798;48.858;9.092;2022-08-01T15:34:45;794.10;2252.80
26021;DHT22;13798;48.858;9.092;2022-08-01T15:37:12;793.90;2252.80
26021;DHT22;13798;48.858;9.092;2022-08-01T15:39:38;793.80;2252.80
26021;DHT22;13798;48.858;9.092;2022-08-01T15:42:17;768.70;2252.80
26021;DHT22;13798;48.858;9.092;2022-08-01T15:44:43;768.80;2278.40
26021;DHT22;13798;48.858;9.092;2022-08-01T15:47:09;768.70;2278.40
26021;DHT22;13798;48.858;9.092;2022-08-01T15:49:36;768.70;2278.40
26021;DHT22;13798;48.858;9.092;2022-08-01T15:52:03;768.30;2304.00
26021;DHT22;13798;48.858;9.092;2022-08-01T15:54:31;742.70;2355.20
26021;DHT22;13798;48.858;9.092;2022-08-01T15:56:58;742.90;2380.80
26021;DHT22;13798;48.858;9.092;2022-08-01T15:59:23;742.70;2380.80
26021;DHT22;13798;48.858;9.092;2022-08-01T16:01:49;742.40;2406.40
26021;DHT22;13798;48.858;9.092;2022-08-01T16:04:15;742.50;2432.00
26021;DHT22;13798;48.858;9.092;2022-08-01T16:06:41;742.60;2432.00
26021;DHT22;13798;48.858;9.092;2022-08-01T16:09:07;742.80;2380.80
26021;DHT22;13798;48.858;9.092;2022-08-01T16:11:33;742.60;2380.80
26021;DHT22;13798;48.858;9.092;2022-08-01T16:13:59;742.60;2406.40
26021;DHT22;13798;48.858;9.092;2022-08-01T16:16:25;742.80;2380.80
26021;DHT22;13798;48.858;9.092;2022-08-01T16:18:50;742.60;2406.40
26021;DHT22;13798;48.858;9.092;2022-08-01T16:21:16;742.60;2406.40
26021;DHT22;13798;48.858;9.092;2022-08-01T16:23:43;742.50;2432.00
26021;DHT22;13798;48.858;9.092;2022-08-01T16:26:09;742.80;2432.00
26021;DHT22;13798;48.858;9.092;2022-08-01T16:28:36;742.90;2406.40
26021;DHT22;13798;48.858;9.092;2022-08-01T16:31:02;742.80;2380.80
26021;DHT22;13798;48.858;9.092;2022-08-01T16:33:28;742.60;2406.40
26021;DHT22;13798;48.858;9.092;2022-08-01T16:35:54;742.60;2432.00
26021;DHT22;13798;48.858;9.092;2022-08-01T16:38:19;742.60;2432.00
26021;DHT22;13798;48.858;9.092;2022-08-01T16:40:51;742.60;2432.00
26021;DHT22;13798;48.858;9.092;2022-08-01T16:43:18;742.70;2432.00
26021;DHT22;13798;48.858;9.092;2022-08-01T16:45:44;742.40;2432.00
26021;DHT22;13798;48.858;9.092;2022-08-01T16:48:11;717.70;2432.00
26021;DHT22;13798;48.858;9.092;2022-08-01T16:50:37;717.70;2432.00
26021;DHT22;13798;48.858;9.092;2022-08-01T16:53:02;717.50;2432.00
26021;DHT22;13798;48.858;9.092;2022-08-01T16:55:28;717.70;2432.00
26021;DHT22;13798;48.858;9.092;2022-08-01T16:57:54;717.60;2432.00
26021;DHT22;13798;48.858;9.092;2022-08-01T17:00:20;717.20;2432.00
26021;DHT22;13798;48.858;9.092;2022-08-01T17:02:46;717.70;2432.00
26021;DHT22;13798;48.858;9.092;2022-08-01T17:05:11;717.20;2432.00
26021;DHT22;13798;48.858;9.092;2022-08-01T17:07:38;717.00;2432.00
26021;DHT22;13798;48.858;9.092;2022-08-01T17:10:05;717.10;2432.00
26021;DHT22;13798;48.858;9.092;2022-08-01T17:12:30;717.00;2432.00
26021;DHT22;13798;48.858;9.092;2022-08-01T17:14:57;717.00;2432.00
26021;DHT22;13798;48.858;9.092;2022-08-01T17:17:23;692.10;2432.00
26021;DHT22;13798;48.858;9.092;2022-08-01T17:19:49;717.00;2432.00
26021;DHT22;13798;48.858;9.092;2022-08-01T17:22:15;717.20;2432.00
26021;DHT22;13798;48.858;9.092;2022-08-01T17:24:41;717.30;2432.00
26021;DHT22;13798;48.858;9.092;2022-08-01T17:27:06;717.20;2432.00
26021;DHT22;13798;48.858;9.092;2022-08-01T17:29:32;717.00;2432.00
26021;DHT22;13798;48.858;9.092;2022-08-01T17:31:58;717.20;2432.00
26021;DHT22;13798;48.858;9.092;2022-08-01T17:34:23;716.90;2432.00
26021;DHT22;13798;48.858;9.092;2022-08-01T17:36:49;692.00;2432.00
26021;DHT22;13798;48.858;9.092;2022-08-01T17:39:14;691.90;2432.00
26021;DHT22;13798;48.858;9.092;2022-08-01T17:41:40;692.10;2432.00
26021;DHT22;13798;48.858;9.092;2022-08-01T17:44:06;691.90;2432.00
26021;DHT22;13798;48.858;9.092;2022-08-01T17:46:32;691.70;2432.00
26021;DHT22;13798;48.858;9.092;2022-08-01T17:48:58;691.80;2432.00
26021;DHT22;13798;48.858;9.092;2022-08-01T17:51:26;691.60;2432.00
26021;DHT22;13798;48.858;9.092;2022-08-01T17:53:52;691.50;2432.00
26021;DHT22;13798;48.858;9.092;2022-08-01T17:56:17;691.30;2432.00
26021;DHT22;13798;48.858;9.092;2022-08-01T17:58:43;691.20;2432.00
26021;DHT22;13798;48.858;9.092;2022-08-01T18:01:08;691.30;2432.00
26021;DHT22;13798;48.858;9.092;2022-08-01T18:03:34;691.30;2432.00
26021;DHT22;13798;48.858;9.092;2022-08-01T18:06:00;691.20;2432.00
26021;DHT22;13798;48.858;9.092;2022-08-01T18:08:27;666.40;2432.00
26021;DHT22;13798;48.858;9.092;2022-08-01T18:10:56;666.50;2432.00
26021;DHT22;13798;48.858;9.092;2022-08-01T18:13:21;666.30;2432.00
26021;DHT22;13798;48.858;9.092;2022-08-01T18:15:47;666.40;2432.00
26021;DHT22;13798;48.858;9.092;2022-08-01T18:18:13;666.20;2432.00
26021;DHT22;13798;48.858;9.092;2022-08-01T18:20:41;666.30;2432.00
26021;DHT22;13798;48.858;9.092;2022-08-01T18:23:07;666.50;2432.00
26021;DHT22;13798;48.858;9.092;2022-08-01T18:25:36;666.00;2432.00
26021;DHT22;13798;48.858;9.092;2022-08-01T18:28:01;665.80;2432.00
26021;DHT22;13798;48.858;9.092;2022-08-01T18:30:27;666.10;2432.00
26021;DHT22;13798;48.858;9.092;2022-08-01T18:32:53;665.90;2432.00
26021;DHT22;13798;48.858;9.092;2022-08-01T18:35:21;666.00;2432.00
26021;DHT22;13798;48.858;9.092;2022-08-01T18:37:47;666.00;2432.00
26021;DHT22;13798;48.858;9.092;2022-08-01T18:40:13;665.80;2432.00
26021;DHT22;13798;48.858;9.092;2022-08-01T18:42:38;665.80;2432.00
26021;DHT22;13798;48.858;9.092;2022-08-01T18:45:04;665.80;2432.00
26021;DHT22;13798;48.858;9.092;2022-08-01T18:47:30;665.70;2432.00
26021;DHT22;13798;48.858;9.092;2022-08-01T18:49:55;665.80;2432.00
26021;DHT22;13798;48.858;9.092;2022-08-01T18:52:21;665.90;2432.00
26021;DHT22;13798;48.858;9.092;2022-08-01T18:54:46;665.60;2432.00
26021;DHT22;13798;48.858;9.092;2022-08-01T18:57:12;665.60;2432.00
26021;DHT22;13798;48.858;9.092;2022-08-01T18:59:37;665.80;2432.00
26021;DHT22;13798;48.858;9.092;2022-08-01T19:02:03;665.90;2432.00
26021;DHT22;13798;48.858;9.092;2022-08-01T19:04:28;665.60;2432.00
26021;DHT22;13798;48.858;9.092;2022-08-01T19:06:54;665.60;2432.00
26021;DHT22;13798;48.858;9.092;2022-08-01T19:09:20;640.70;2432.00
26021;DHT22;13798;48.858;9.092;2022-08-01T19:11:45;640.60;2432.00
26021;DHT22;13798;48.858;9.092;2022-08-01T19:14:11;640.60;2432.00
26021;DHT22;13798;48.858;9.092;2022-08-01T19:16:36;640.70;2432.00
26021;DHT22;13798;48.858;9.092;2022-08-01T19:19:06;640.70;2432.00
26021;DHT22;13798;48.858;9.092;2022-08-01T19:21:34;640.60;2432.00
26021;DHT22;13798;48.858;9.092;2022-08-01T19:24:00;640.80;2432.00
26021;DHT22;13798;48.858;9.092;2022-08-01T19:26:52;640.40;2432.00
26021;DHT22;13798;48.858;9.092;2022-08-01T19:31:49;640.20;2432.00
26021;DHT22;13798;48.858;9.092;2022-08-01T19:34:16;640.20;2432.00
26021;DHT22;13798;48.858;9.092;2022-08-01T19:36:46;615.30;2432.00
26021;DHT22;13798;48.858;9.092;2022-08-01T19:39:14;640.20;2432.00
26021;DHT22;13798;48.858;9.092;2022-08-01T19:41:42;640.30;2432.00
26021;DHT22;13798;48.858;9.092;2022-08-01T19:44:14;615.20;2432.00
26021;DHT22;13798;48.858;9.092;2022-08-01T19:46:41;614.90;2432.00
26021;DHT22;13798;48.858;9.092;2022-08-01T19:49:11;615.00;2432.00
26021;DHT22;13798;48.858;9.092;2022-08-01T19:51:45;615.00;2432.00
26021;DHT22;13798;48.858;9.092;2022-08-01T19:54:11;615.20;2432.00
26021;DHT22;13798;48.858;9.092;2022-08-01T19:56:43;614.60;2432.00
26021;DHT22;13798;48.858;9.092;2022-08-01T19:59:16;615.00;2432.00
26021;DHT22;13798;48.858;9.092;2022-08-01T20:01:42;614.80;2432.00
26021;DHT22;13798;48.858;9.092;2022-08-01T20:04:08;614.80;2432.00
26021;DHT22;13798;48.858;9.092;2022-08-01T20:06:34;614.70;2432.00
26021;DHT22;13798;48.858;9.092;2022-08-01T20:09:00;614.90;2432.00
26021;DHT22;13798;48.858;9.092;2022-08-01T20:11:27;614.60;2432.00
26021;DHT22;13798;48.858;9.092;2022-08-01T20:13:54;614.80;2432.00
26021;DHT22;13798;48.858;9.092;2022-08-01T20:16:20;614.80;2432.00
26021;DHT22;13798;48.858;9.092;2022-08-01T20:18:47;614.70;2432.00
26021;DHT22;13798;48.858;9.092;2022-08-01T20:21:13;614.60;2432.00
26021;DHT22;13798;48.858;9.092;2022-08-01T20:23:39;614.70;2432.00
26021;DHT22;13798;48.858;9.092;2022-08-01T20:26:06;614.50;2432.00
26021;DHT22;13798;48.858;9.092;2022-08-01T20:28:35;614.80;2432.00
26021;DHT22;13798;48.858;9.092;2022-08-01T20:31:01;589.70;2432.00
26021;DHT22;13798;48.858;9.092;2022-08-01T20:33:31;614.40;2432.00
26021;DHT22;13798;48.858;9.092;2022-08-01T20:35:58;589.60;2432.00
26021;DHT22;13798;48.858;9.092;2022-08-01T20:38:25;589.60;2432.00
26021;DHT22;13798;48.858;9.092;2022-08-01T20:40:54;614.40;2432.00
26021;DHT22;13798;48.858;9.092;2022-08-01T20:43:22;614.40;2432.00
26021;DHT22;13798;48.858;9.092;2022-08-01T20:45:50;614.60;2432.00
26021;DHT22;13798;48.858;9.092;2022-08-01T20:48:17;614.50;2432.00
26021;DHT22;13798;48.858;9.092;2022-08-01T20:50:44;614.60;2432.00
26021;DHT22;13798;48.858;9.092;2022-08-01T20:53:36;614.40;2432.00
26021;DHT22;13798;48.858;9.092;2022-08-01T20:59:18;614.40;2432.00
26021;DHT22;13798;48.858;9.092;2022-08-01T21:04:26;589.70;2432.00
26021;DHT22;13798;48.858;9.092;2022-08-01T21:07:17;589.50;2432.00
26021;DHT22;13798;48.858;9.092;2022-08-01T21:09:52;589.40;2432.00
26021;DHT22;13798;48.858;9.092;2022-08-01T21:12:26;589.50;2432.00